Observation data for Friona on 01/19/2019      Previous  Date  Next       Current Mesonet Observations  Soil Data  Daily Summary Page  Observations in Plain Language
KFAS 190600Z 35023G30KT M01/M01 A3009 RMK A01 T10131014  RH  100%=      5-min Rain = 0
KFAS 190605Z 35025G31KT M01/M01 A3009 RMK A01 T10131014  RH  100%=      5-min Rain = 0
KFAS 190610Z 35024G32KT M01/M02 A301 RMK A01 T10131015  RH  099%=      5-min Rain = 0
KFAS 190615Z 35025G30KT M01/M02 A301 RMK A01 T10131016  RH  099%=      5-min Rain = 0
KFAS 190620Z 35024G29KT M01/M02 A301 RMK A01 T10131017  RH  098%=      5-min Rain = 0
KFAS 190625Z 35022G30KT M01/M02 A301 RMK A01 T10131018  RH  098%=      5-min Rain = 0
KFAS 190630Z 34021G29KT M01/M02 A3011 RMK A01 T10141019  RH  097%=      5-min Rain = 0
KFAS 190635Z 34022G29KT M01/M02 A3011 RMK A01 T10131019  RH  097%=      5-min Rain = 0
KFAS 190640Z 34020G29KT M01/M02 A3011 RMK A01 T10141020  RH  096%=      5-min Rain = 0
KFAS 190645Z 34019G24KT M01/M02 A3012 RMK A01 T10141021  RH  096%=      5-min Rain = 0
KFAS 190650Z 34023G29KT M01/M02 A3011 RMK A01 T10141021  RH  095%=      5-min Rain = 0
KFAS 190655Z 34024G30KT M01/M02 A3011 RMK A01 T10131022  RH  094%=      5-min Rain = 0
KFAS 190700Z 34026G32KT M01/M02 A3011 RMK A01 T10131023  RH  094%=      5-min Rain = 0
KFAS 190705Z 35024G29KT M01/M02 A3011 RMK A01 T10131024  RH  093%=      5-min Rain = 0
KFAS 190710Z 35024G31KT M01/M02 A3012 RMK A01 T10141024  RH  093%=      5-min Rain = 0
KFAS 190715Z 35022G29KT M01/M03 A3012 RMK A01 T10141025  RH  093%=      5-min Rain = 0
KFAS 190720Z 35021G29KT M02/M03 A3012 RMK A01 T10151026  RH  093%=      5-min Rain = 0
KFAS 190725Z 34019G24KT M02/M03 A3013 RMK A01 T10161026  RH  093%=      5-min Rain = 0
KFAS 190730Z 34019G24KT M02/M03 A3013 RMK A01 T10161026  RH  093%=      5-min Rain = 0
KFAS 190735Z 34017KT M02/M03 A3014 RMK A01 T10161027  RH  093%=      5-min Rain = 0
KFAS 190740Z 34017KT M02/M03 A3013 RMK A01 T10171027  RH  094%=      5-min Rain = 0
KFAS 190745Z 34018G25KT M02/M03 A3014 RMK A01 T10161026  RH  093%=      5-min Rain = 0
KFAS 190750Z 34018G24KT M02/M03 A3014 RMK A01 T10161026  RH  093%=      5-min Rain = 0
KFAS 190755Z 34018KT M02/M03 A3014 RMK A01 T10151026  RH  093%=      5-min Rain = 0
KFAS 190800Z 34015KT M02/M03 A3014 RMK A01 T10161027  RH  093%=      5-min Rain = 0
KFAS 190805Z 34015KT M02/M03 A3014 RMK A01 T10171028  RH  093%=      5-min Rain = 0
KFAS 190810Z 34016G21KT M02/M03 A3014 RMK A01 T10171027  RH  093%=      5-min Rain = 0
KFAS 190815Z 34017G22KT M02/M03 A3014 RMK A01 T10161027  RH  093%=      5-min Rain = 0
KFAS 190820Z 34015KT M02/M03 A3014 RMK A01 T10161027  RH  092%=      5-min Rain = 0
KFAS 190825Z 34015KT M02/M03 A3014 RMK A01 T10161028  RH  092%=      5-min Rain = 0
KFAS 190830Z 34014KT M02/M03 A3014 RMK A01 T10171028  RH  092%=      5-min Rain = 0
KFAS 190835Z 34015KT M02/M03 A3015 RMK A01 T10161028  RH  093%=      5-min Rain = 0
KFAS 190840Z 33014KT M02/M03 A3015 RMK A01 T10161028  RH  092%=      5-min Rain = 0
KFAS 190845Z 34014G19KT M02/M03 A3015 RMK A01 T10161028  RH  092%=      5-min Rain = 0
KFAS 190850Z 34013KT M02/M03 A3015 RMK A01 T10161029  RH  092%=      5-min Rain = 0
KFAS 190855Z 33013KT M02/M03 A3015 RMK A01 T10161029  RH  092%=      5-min Rain = 0
KFAS 190900Z 33011KT M02/M03 A3016 RMK A01 T10161029  RH  092%=      5-min Rain = 0
KFAS 190905Z 33010KT M02/M03 A3016 RMK A01 T10181030  RH  092%=      5-min Rain = 0
KFAS 190910Z 32010KT M02/M03 A3016 RMK A01 T10181030  RH  092%=      5-min Rain = 0
KFAS 190915Z 32009KT M02/M03 A3017 RMK A01 T10181031  RH  092%=      5-min Rain = 0
KFAS 190920Z 31007KT M02/M03 A3017 RMK A01 T10201033  RH  091%=      5-min Rain = 0
KFAS 190925Z 31007KT M02/M04 A3017 RMK A01 T10221035  RH  092%=      5-min Rain = 0
KFAS 190930Z 31009KT M02/M03 A3018 RMK A01 T10221034  RH  092%=      5-min Rain = 0
KFAS 190935Z 31010KT M02/M03 A3018 RMK A01 T10211033  RH  092%=      5-min Rain = 0
KFAS 190940Z 31011KT M02/M03 A3018 RMK A01 T10191032  RH  092%=      5-min Rain = 0
KFAS 190945Z 31013KT M02/M03 A3018 RMK A01 T10171030  RH  092%=      5-min Rain = 0
KFAS 190950Z 32012KT M02/M03 A3018 RMK A01 T10161030  RH  091%=      5-min Rain = 0
KFAS 190955Z 32013KT M02/M03 A3018 RMK A01 T10161029  RH  091%=      5-min Rain = 0
KFAS 191000Z 32014KT M01/M03 A3018 RMK A01 T10141028  RH  090%=      5-min Rain = 0
KFAS 191005Z 33013KT M01/M03 A3018 RMK A01 T10131029  RH  090%=      5-min Rain = 0
KFAS 191010Z 33013KT M01/M03 A3019 RMK A01 T10131029  RH  089%=      5-min Rain = 0
KFAS 191015Z 33011KT M01/M03 A3019 RMK A01 T10131030  RH  089%=      5-min Rain = 0
KFAS 191020Z 32010KT M02/M03 A3019 RMK A01 T10151031  RH  089%=      5-min Rain = 0
KFAS 191025Z 32012KT M01/M03 A3019 RMK A01 T10141030  RH  089%=      5-min Rain = 0
KFAS 191030Z 32011KT M01/M03 A302 RMK A01 T10131030  RH  089%=      5-min Rain = 0
KFAS 191035Z 32010KT M01/M03 A302 RMK A01 T10141032  RH  088%=      5-min Rain = 0
KFAS 191040Z 32009KT M02/M03 A302 RMK A01 T10161033  RH  088%=      5-min Rain = 0
KFAS 191045Z 31009KT M02/M03 A302 RMK A01 T10171034  RH  089%=      5-min Rain = 0
KFAS 191050Z 31008KT M02/M04 A302 RMK A01 T10191036  RH  089%=      5-min Rain = 0
KFAS 191055Z 31008KT M02/M04 A302 RMK A01 T10211037  RH  089%=      5-min Rain = 0
KFAS 191100Z 31009KT M02/M04 A302 RMK A01 T10201036  RH  090%=      5-min Rain = 0
KFAS 191105Z 32008KT M02/M04 A302 RMK A01 T10191036  RH  089%=      5-min Rain = 0
KFAS 191110Z 32007KT M02/M04 A302 RMK A01 T10211037  RH  089%=      5-min Rain = 0
KFAS 191115Z 32007KT M02/M04 A302 RMK A01 T10221039  RH  089%=      5-min Rain = 0
KFAS 191120Z 31007KT M03/M04 A302 RMK A01 T10251042  RH  089%=      5-min Rain = 0
KFAS 191125Z 32008KT M03/M04 A302 RMK A01 T10271043  RH  089%=      5-min Rain = 0
KFAS 191130Z 31008KT M03/M04 A3021 RMK A01 T10271042  RH  090%=      5-min Rain = 0
KFAS 191135Z 31008KT M03/M04 A3021 RMK A01 T10261041  RH  090%=      5-min Rain = 0
KFAS 191140Z 32008KT M03/M04 A3021 RMK A01 T10281044  RH  089%=      5-min Rain = 0
KFAS 191145Z 32009KT M03/M05 A3021 RMK A01 T10301046  RH  090%=      5-min Rain = 0
KFAS 191150Z 32009KT M03/M04 A3021 RMK A01 T10301044  RH  090%=      5-min Rain = 0
KFAS 191155Z 32008KT M03/M04 A3021 RMK A01 T10301044  RH  090%=      5-min Rain = 0
KFAS 191200Z 32008KT M03/M04 A3021 RMK A01 T10301044  RH  091%=      5-min Rain = 0
KFAS 191205Z 32007KT M03/M04 A3021 RMK A01 T10271041  RH  091%=      5-min Rain = 0
KFAS 191210Z 32006KT M03/M04 A3021 RMK A01 T10271043  RH  089%=      5-min Rain = 0
KFAS 191215Z 33006KT M03/M04 A3022 RMK A01 T10281043  RH  090%=      5-min Rain = 0
KFAS 191220Z 33006KT M03/M05 A3022 RMK A01 T10301046  RH  089%=      5-min Rain = 0
KFAS 191225Z 33006KT M03/M05 A3022 RMK A01 T10331049  RH  089%=      5-min Rain = 0
KFAS 191230Z 33006KT M04/M05 A3022 RMK A01 T10351050  RH  090%=      5-min Rain = 0
KFAS 191235Z 33006KT M04/M05 A3022 RMK A01 T10371051  RH  090%=      5-min Rain = 0
KFAS 191240Z 33007KT M04/M05 A3023 RMK A01 T10361049  RH  091%=      5-min Rain = 0
KFAS 191245Z 33007KT M03/M05 A3023 RMK A01 T10341047  RH  091%=      5-min Rain = 0
KFAS 191250Z 33007KT M03/M05 A3023 RMK A01 T10341047  RH  091%=      5-min Rain = 0
KFAS 191255Z 33006KT M03/M05 A3023 RMK A01 T10341048  RH  091%=      5-min Rain = 0
KFAS 191300Z 32006KT M04/M05 A3024 RMK A01 T10351049  RH  091%=      5-min Rain = 0
KFAS 191305Z 31007KT M04/M05 A3024 RMK A01 T10381052  RH  090%=      5-min Rain = 0
KFAS 191310Z 31009KT M04/M05 A3024 RMK A01 T10381051  RH  091%=      5-min Rain = 0
KFAS 191315Z 31009KT M03/M05 A3024 RMK A01 T10331045  RH  092%=      5-min Rain = 0
KFAS 191320Z 31009KT M03/M05 A3024 RMK A01 T10331047  RH  091%=      5-min Rain = 0
KFAS 191325Z 31010KT M03/M05 A3024 RMK A01 T10321046  RH  091%=      5-min Rain = 0
KFAS 191330Z 31010KT M03/M05 A3024 RMK A01 T10311045  RH  090%=      5-min Rain = 0
KFAS 191335Z 31010KT M03/M05 A3025 RMK A01 T10311046  RH  090%=      5-min Rain = 0
KFAS 191340Z 31011KT M03/M05 A3025 RMK A01 T10311046  RH  090%=      5-min Rain = 0
KFAS 191345Z 31011KT M03/M05 A3025 RMK A01 T10311045  RH  090%=      5-min Rain = 0
KFAS 191350Z 30010KT M03/M05 A3025 RMK A01 T10301045  RH  090%=      5-min Rain = 0
KFAS 191355Z 30009KT M03/M04 A3026 RMK A01 T10291044  RH  089%=      5-min Rain = 0
KFAS 191400Z 30009KT M03/M04 A3026 RMK A01 T10271044  RH  089%=      5-min Rain = 0
KFAS 191405Z 28009KT M03/M05 A3027 RMK A01 T10281046  RH  088%=      5-min Rain = 0
KFAS 191410Z 27007KT M03/M05 A3027 RMK A01 T10281045  RH  088%=      5-min Rain = 0
KFAS 191415Z 27007KT M03/M05 A3027 RMK A01 T10271045  RH  088%=      5-min Rain = 0
KFAS 191420Z 27008KT M03/M05 A3028 RMK A01 T10271045  RH  087%=      5-min Rain = 0
KFAS 191425Z 28008KT M02/M04 A3028 RMK A01 T10241043  RH  088%=      5-min Rain = 0
KFAS 191430Z 27008KT M02/M04 A3028 RMK A01 T10201039  RH  087%=      5-min Rain = 0
KFAS 191435Z 28009KT M02/M04 A3028 RMK A01 T10171037  RH  086%=      5-min Rain = 0
KFAS 191440Z 28009KT M01/M04 A3028 RMK A01 T10131036  RH  085%=      5-min Rain = 0
KFAS 191445Z 29009KT M01/M04 A3029 RMK A01 T10121035  RH  085%=      5-min Rain = 0
KFAS 191450Z 29009KT M01/M04 A3029 RMK A01 T10121035  RH  085%=      5-min Rain = 0
KFAS 191455Z 30008KT M01/M03 A3029 RMK A01 T10101032  RH  085%=      5-min Rain = 0
KFAS 191500Z 31008KT M01/M03 A3029 RMK A01 T10081030  RH  086%=      5-min Rain = 0
KFAS 191505Z 32009KT M01/M03 A303 RMK A01 T10051026  RH  086%=      5-min Rain = 0
KFAS 191510Z 32009KT M00/M02 A303 RMK A01 T10021024  RH  086%=      5-min Rain = 0
KFAS 191515Z 33008KT 00/M02 A303 RMK A01 T00011021  RH  086%=      5-min Rain = 0
KFAS 191520Z 33009KT 00/M02 A303 RMK A01 T00041020  RH  085%=      5-min Rain = 0
KFAS 191525Z 34010KT 01/M02 A303 RMK A01 T00071019  RH  084%=      5-min Rain = 0
KFAS 191530Z 33010KT 01/M02 A303 RMK A01 T00081018  RH  083%=      5-min Rain = 0
KFAS 191535Z 33009KT 01/M02 A303 RMK A01 T00081018  RH  084%=      5-min Rain = 0
KFAS 191540Z 33008KT 01/M02 A3031 RMK A01 T00081017  RH  084%=      5-min Rain = 0
KFAS 191545Z 32009KT 01/M02 A3031 RMK A01 T00081017  RH  084%=      5-min Rain = 0
KFAS 191550Z 32008KT 01/M01 A3031 RMK A01 T00091014  RH  085%=      5-min Rain = 0.02
KFAS 191555Z 31008KT 01/M01 A3031 RMK A01 T00091014  RH  085%=      5-min Rain = 0
KFAS 191600Z 30007KT 01/M01 A3032 RMK A01 T00111011  RH  086%=      5-min Rain = 0
KFAS 191605Z 29006KT 01/M01 A3032 RMK A01 T00141008  RH  086%=      5-min Rain = 0
KFAS 191610Z 30008KT 02/M01 A3032 RMK A01 T00151009  RH  085%=      5-min Rain = 0
KFAS 191615Z 30009KT 02/M01 A3032 RMK A01 T00171011  RH  083%=      5-min Rain = 0
KFAS 191620Z 30006KT 02/M01 A3032 RMK A01 T00201008  RH  083%=      5-min Rain = 0
KFAS 191625Z 30007KT 02/M01 A3032 RMK A01 T00221006  RH  082%=      5-min Rain = 0
KFAS 191630Z 31008KT 02/M01 A3032 RMK A01 T00231008  RH  081%=      5-min Rain = 0
KFAS 191635Z 32007KT 03/M01 A3032 RMK A01 T00251005  RH  081%=      5-min Rain = 0
KFAS 191640Z 32009KT 03/M01 A3032 RMK A01 T00271005  RH  080%=      5-min Rain = 0
KFAS 191645Z 32009KT 03/M01 A3033 RMK A01 T00271007  RH  079%=      5-min Rain = 0
KFAS 191650Z 33010KT 03/M01 A3033 RMK A01 T00291007  RH  078%=      5-min Rain = 0
KFAS 191655Z 33009KT 03/M01 A3033 RMK A01 T00321005  RH  078%=      5-min Rain = 0
KFAS 191700Z 33009KT 04/M00 A3033 RMK A01 T00351002  RH  078%=      5-min Rain = 0
KFAS 191705Z 33010KT 04/M00 A3033 RMK A01 T00371002  RH  077%=      5-min Rain = 0
KFAS 191710Z 33011KT 04/M01 A3033 RMK A01 T00381005  RH  075%=      5-min Rain = 0
KFAS 191715Z 33010KT 04/M00 A3033 RMK A01 T00401002  RH  075%=      5-min Rain = 0
KFAS 191720Z 33011KT 04/M00 A3033 RMK A01 T00431002  RH  073%=      5-min Rain = 0
KFAS 191725Z 34011G17KT 05/M00 A3033 RMK A01 T00451001  RH  073%=      5-min Rain = 0
KFAS 191730Z 35013G18KT 05/M01 A3033 RMK A01 T00451005  RH  071%=      5-min Rain = 0
KFAS 191735Z 34013KT 05/M00 A3033 RMK A01 T00461003  RH  072%=      5-min Rain = 0
KFAS 191740Z 34013KT 05/M00 A3033 RMK A01 T00471003  RH  071%=      5-min Rain = 0
KFAS 191745Z 34013KT 05/M00 A3034 RMK A01 T00481003  RH  070%=      5-min Rain = 0
KFAS 191750Z 35013G19KT 05/M00 A3034 RMK A01 T00501003  RH  070%=      5-min Rain = 0
KFAS 191755Z 34012KT 05/M00 A3033 RMK A01 T00521002  RH  069%=      5-min Rain = 0
KFAS 191800Z 35012KT 05/00 A3033 RMK A01 T00530000  RH  069%=      5-min Rain = 0
KFAS 191805Z 35014G19KT 06/M00 A3033 RMK A01 T00551001  RH  068%=      5-min Rain = 0
KFAS 191810Z 36013G18KT 06/00 A3033 RMK A01 T00570000  RH  068%=      5-min Rain = 0
KFAS 191815Z 36012KT 06/00 A3032 RMK A01 T00580002  RH  068%=      5-min Rain = 0
KFAS 191820Z 35014G19KT 06/00 A3032 RMK A01 T00610003  RH  067%=      5-min Rain = 0
KFAS 191825Z 36014KT 06/M00 A3032 RMK A01 T00611004  RH  064%=      5-min Rain = 0
KFAS 191830Z 35013G18KT 06/M00 A3032 RMK A01 T00611003  RH  064%=      5-min Rain = 0
KFAS 191835Z 35013KT 06/M00 A3032 RMK A01 T00611003  RH  064%=      5-min Rain = 0
KFAS 191840Z 34012KT 06/M00 A3032 RMK A01 T00631002  RH  063%=      5-min Rain = 0
KFAS 191845Z 36011KT 07/00 A3032 RMK A01 T00660001  RH  064%=      5-min Rain = 0
KFAS 191850Z 35012KT 07/M00 A3031 RMK A01 T00661004  RH  062%=      5-min Rain = 0
KFAS 191855Z 36012KT 07/M01 A3031 RMK A01 T00651006  RH  061%=      5-min Rain = 0
KFAS 191900Z 35010G15KT 07/M00 A3031 RMK A01 T00691002  RH  061%=      5-min Rain = 0
KFAS 191905Z 01012G17KT 07/M00 A3031 RMK A01 T00691003  RH  061%=      5-min Rain = 0
KFAS 191910Z 35011KT 07/M00 A3031 RMK A01 T00691003  RH  061%=      5-min Rain = 0
KFAS 191915Z 00010KT 07/M00 A3031 RMK A01 T00711002  RH  061%=      5-min Rain = 0
KFAS 191920Z 01010G15KT 07/M00 A3031 RMK A01 T00711003  RH  060%=      5-min Rain = 0
KFAS 191925Z 35011KT 07/M00 A3031 RMK A01 T00711003  RH  060%=      5-min Rain = 0
KFAS 191930Z 35007KT 07/M00 A3031 RMK A01 T00701003  RH  061%=      5-min Rain = 0
KFAS 191935Z 34008KT 07/M00 A3031 RMK A01 T00731001  RH  060%=      5-min Rain = 0
KFAS 191940Z 00009KT 08/00 A303 RMK A01 T00770004  RH  061%=      5-min Rain = 0
KFAS 191945Z 35010KT 08/00 A303 RMK A01 T00780002  RH  059%=      5-min Rain = 0
KFAS 191950Z 36008KT 08/M00 A3029 RMK A01 T00771001  RH  059%=      5-min Rain = 0
KFAS 191955Z 36008G15KT 08/00 A3029 RMK A01 T007900-0  RH  058%=      5-min Rain = 0
KFAS 192000Z 35008KT 08/00 A3029 RMK A01 T008200-0  RH  057%=      5-min Rain = 0
KFAS 192005Z 33006G11KT 08/M01 A3029 RMK A01 T00801005  RH  056%=      5-min Rain = 0
KFAS 192010Z 34008KT 08/M00 A3028 RMK A01 T00821004  RH  055%=      5-min Rain = 0
KFAS 192015Z 34008KT 08/M01 A3028 RMK A01 T00821005  RH  055%=      5-min Rain = 0
KFAS 192020Z 32005KT 08/M01 A3028 RMK A01 T00811007  RH  054%=      5-min Rain = 0
KFAS 192025Z 31005KT 08/M01 A3028 RMK A01 T00821007  RH  054%=      5-min Rain = 0
KFAS 192030Z 33007G12KT 09/M01 A3027 RMK A01 T00861009  RH  052%=      5-min Rain = 0
KFAS 192035Z 32008KT 09/M01 A3027 RMK A01 T00871010  RH  051%=      5-min Rain = 0
KFAS 192040Z 33006KT 09/M01 A3027 RMK A01 T00871009  RH  051%=      5-min Rain = 0
KFAS 192045Z 32007KT 09/M01 A3027 RMK A01 T00871014  RH  050%=      5-min Rain = 0
KFAS 192050Z 33004G9KT 08/M02 A3026 RMK A01 T00841016  RH  050%=      5-min Rain = 0
KFAS 192055Z 30005KT 09/M01 A3026 RMK A01 T00881014  RH  049%=      5-min Rain = 0
KFAS 192100Z 30006G11KT 09/M02 A3026 RMK A01 T00901015  RH  048%=      5-min Rain = 0
KFAS 192105Z 29004KT 09/M02 A3026 RMK A01 T00911016  RH  047%=      5-min Rain = 0
KFAS 192110Z 29003KT 09/M01 A3025 RMK A01 T00911014  RH  048%=      5-min Rain = 0
KFAS 192115Z 28004G9KT 09/M02 A3025 RMK A01 T00941019  RH  045%=      5-min Rain = 0
KFAS 192120Z 27003KT 10/M02 A3025 RMK A01 T00951020  RH  045%=      5-min Rain = 0
KFAS 192125Z 31003KT 10/M02 A3025 RMK A01 T00951018  RH  045%=      5-min Rain = 0
KFAS 192130Z 29003KT 10/M02 A3025 RMK A01 T00951017  RH  046%=      5-min Rain = 0
KFAS 192135Z 29002KT 10/M02 A3025 RMK A01 T00981017  RH  045%=      5-min Rain = 0
KFAS 192140Z 35001KT 10/M02 A3025 RMK A01 T00991017  RH  045%=      5-min Rain = 0
KFAS 192145Z 02005KT 10/M02 A3025 RMK A01 T00971017  RH  045%=      5-min Rain = 0
KFAS 192150Z 02005KT 10/M02 A3025 RMK A01 T00961019  RH  045%=      5-min Rain = 0
KFAS 192155Z 02004KT 09/M02 A3025 RMK A01 T00941022  RH  044%=      5-min Rain = 0
KFAS 192200Z 01003KT 10/M02 A3025 RMK A01 T00951020  RH  045%=      5-min Rain = 0
KFAS 192205Z 00005KT 10/M02 A3025 RMK A01 T00961021  RH  044%=      5-min Rain = 0
KFAS 192210Z 30004KT 10/M02 A3025 RMK A01 T00981024  RH  043%=      5-min Rain = 0
KFAS 192215Z 00003KT 10/M02 A3025 RMK A01 T00971023  RH  043%=      5-min Rain = 0
KFAS 192220Z 03005KT 10/M02 A3025 RMK A01 T00961021  RH  044%=      5-min Rain = 0
KFAS 192225Z 04002KT 10/M02 A3025 RMK A01 T00951022  RH  044%=      5-min Rain = 0
KFAS 192230Z 00004KT 10/M02 A3025 RMK A01 T00951020  RH  045%=      5-min Rain = 0
KFAS 192235Z 01003KT 10/M02 A3025 RMK A01 T00951023  RH  044%=      5-min Rain = 0
KFAS 192240Z 03002KT 10/M02 A3025 RMK A01 T00951022  RH  044%=      5-min Rain = 0
KFAS 192245Z 01001KT 10/M02 A3024 RMK A01 T00961022  RH  044%=      5-min Rain = 0
KFAS 192250Z 05003KT 10/M02 A3024 RMK A01 T00971022  RH  044%=      5-min Rain = 0
KFAS 192255Z 06001KT 10/M02 A3025 RMK A01 T00961023  RH  044%=      5-min Rain = 0
KFAS 192300Z 10002KT 10/M02 A3025 RMK A01 T00971024  RH  043%=      5-min Rain = 0
KFAS 192305Z 15003KT 10/M02 A3025 RMK A01 T00981022  RH  043%=      5-min Rain = 0
KFAS 192310Z 13003KT 10/M02 A3025 RMK A01 T01001021  RH  043%=      5-min Rain = 0
KFAS 192315Z 13004KT 10/M02 A3025 RMK A01 T00981020  RH  044%=      5-min Rain = 0
KFAS 192320Z 12004KT 09/M02 A3025 RMK A01 T00941018  RH  046%=      5-min Rain = 0
KFAS 192325Z 12005KT 09/M02 A3025 RMK A01 T00911017  RH  047%=      5-min Rain = 0
KFAS 192330Z 11005KT 09/M02 A3025 RMK A01 T00891017  RH  048%=      5-min Rain = 0
KFAS 192335Z 10004KT 09/M02 A3025 RMK A01 T00871016  RH  049%=      5-min Rain = 0
KFAS 192340Z 09004KT 09/M01 A3025 RMK A01 T00851014  RH  050%=      5-min Rain = 0
KFAS 192345Z 09004KT 08/M01 A3025 RMK A01 T00831012  RH  052%=      5-min Rain = 0
KFAS 192350Z 09004KT 08/M01 A3025 RMK A01 T00801010  RH  054%=      5-min Rain = 0
KFAS 192355Z 09005KT 08/M01 A3025 RMK A01 T00761008  RH  056%=      5-min Rain = 0
KFAS 200000Z 10005KT 07/M01 A3025 RMK A01 T00721007  RH  058%=      5-min Rain = 0
KFAS 200005Z 11005KT 07/M01 A3025 RMK A01 T00681008  RH  059%=      5-min Rain = 0
KFAS 200010Z 10005KT 06/M01 A3025 RMK A01 T00641009  RH  060%=      5-min Rain = 0
KFAS 200015Z 09006KT 06/M01 A3025 RMK A01 T00601011  RH  061%=      5-min Rain = 0
KFAS 200020Z 08006KT 06/M01 A3025 RMK A01 T00571012  RH  062%=      5-min Rain = 0
KFAS 200025Z 08006KT 05/M01 A3025 RMK A01 T00511013  RH  064%=      5-min Rain = 0
KFAS 200030Z 08005KT 05/M01 A3025 RMK A01 T00461012  RH  067%=      5-min Rain = 0
KFAS 200035Z 09006KT 04/M01 A3025 RMK A01 T00431012  RH  068%=      5-min Rain = 0
KFAS 200040Z 10005KT 04/M01 A3025 RMK A01 T00401013  RH  069%=      5-min Rain = 0
KFAS 200045Z 10006KT 04/M01 A3025 RMK A01 T00381013  RH  070%=      5-min Rain = 0
KFAS 200050Z 10006KT 03/M01 A3024 RMK A01 T00341014  RH  071%=      5-min Rain = 0
KFAS 200055Z 11006KT 03/M02 A3024 RMK A01 T00311015  RH  072%=      5-min Rain = 0
KFAS 200100Z 12007KT 03/M02 A3024 RMK A01 T00251018  RH  074%=      5-min Rain = 0
KFAS 200105Z 12008KT 02/M02 A3023 RMK A01 T00211018  RH  076%=      5-min Rain = 0
KFAS 200110Z 12008KT 02/M02 A3023 RMK A01 T00191019  RH  076%=      5-min Rain = 0
KFAS 200115Z 12008KT 02/M02 A3022 RMK A01 T00171022  RH  076%=      5-min Rain = 0
KFAS 200120Z 12008KT 02/M02 A3022 RMK A01 T00161022  RH  076%=      5-min Rain = 0
KFAS 200125Z 12007KT 01/M02 A3023 RMK A01 T00141024  RH  076%=      5-min Rain = 0
KFAS 200130Z 12006KT 01/M03 A3023 RMK A01 T00121026  RH  076%=      5-min Rain = 0
KFAS 200135Z 12006KT 01/M03 A3023 RMK A01 T00101027  RH  077%=      5-min Rain = 0
KFAS 200140Z 12006KT 01/M03 A3024 RMK A01 T00071028  RH  078%=      5-min Rain = 0
KFAS 200145Z 13005KT 01/M03 A3024 RMK A01 T00071027  RH  079%=      5-min Rain = 0
KFAS 200150Z 14004KT 01/M03 A3025 RMK A01 T00071027  RH  079%=      5-min Rain = 0
KFAS 200155Z 15004KT 01/M03 A3026 RMK A01 T00061027  RH  079%=      5-min Rain = 0
KFAS 200200Z 15004KT 01/M03 A3026 RMK A01 T00051030  RH  078%=      5-min Rain = 0
KFAS 200205Z 15005KT 00/M03 A3025 RMK A01 T00021031  RH  079%=      5-min Rain = 0
KFAS 200210Z 16005KT 00/M03 A3025 RMK A01 T00031028  RH  081%=      5-min Rain = 0
KFAS 200215Z 16007KT 00/M03 A3025 RMK A01 T00011029  RH  081%=      5-min Rain = 0
KFAS 200220Z 16008KT M00/M03 A3025 RMK A01 T10041032  RH  082%=      5-min Rain = 0
KFAS 200225Z 15008KT M00/M03 A3025 RMK A01 T10041029  RH  084%=      5-min Rain = 0
KFAS 200230Z 16007KT 00/M02 A3026 RMK A01 T00031022  RH  084%=      5-min Rain = 0
KFAS 200235Z 15008KT 00/M03 A3025 RMK A01 T00021027  RH  081%=      5-min Rain = 0
KFAS 200240Z 16008KT 00/03 A3024 RMK A01 T00-00-27  RH  083%=      5-min Rain = 0
KFAS 200245Z 16008KT 00/M03 A3024 RMK A01 T00011025  RH  083%=      5-min Rain = 0
KFAS 200250Z 16008KT 00/M02 A3024 RMK A01 T00021023  RH  084%=      5-min Rain = 0
KFAS 200255Z 16007KT 00/M02 A3024 RMK A01 T00031023  RH  083%=      5-min Rain = 0
KFAS 200300Z 16007KT 00/03 A3024 RMK A01 T00000-26  RH  083%=      5-min Rain = 0
KFAS 200305Z 16006KT M00/M03 A3024 RMK A01 T10031028  RH  084%=      5-min Rain = 0
KFAS 200310Z 15005KT M01/M03 A3024 RMK A01 T10061030  RH  084%=      5-min Rain = 0
KFAS 200315Z 15005KT M01/M03 A3025 RMK A01 T10081030  RH  085%=      5-min Rain = 0
KFAS 200320Z 15005KT M01/M03 A3025 RMK A01 T10071028  RH  087%=      5-min Rain = 0
KFAS 200325Z 15006KT M01/M03 A3025 RMK A01 T10071029  RH  086%=      5-min Rain = 0
KFAS 200330Z 15006KT M01/M03 A3025 RMK A01 T10091031  RH  086%=      5-min Rain = 0
KFAS 200335Z 16006KT M01/M03 A3025 RMK A01 T10081029  RH  087%=      5-min Rain = 0
KFAS 200340Z 17006KT M01/M03 A3025 RMK A01 T10101031  RH  086%=      5-min Rain = 0
KFAS 200345Z 17007KT M01/M03 A3025 RMK A01 T10111031  RH  087%=      5-min Rain = 0
KFAS 200350Z 17007KT M01/M03 A3024 RMK A01 T10111030  RH  088%=      5-min Rain = 0
KFAS 200355Z 17007KT M01/M03 A3024 RMK A01 T10121030  RH  088%=      5-min Rain = 0
KFAS 200400Z 17007KT M01/M03 A3023 RMK A01 T10111029  RH  088%=      5-min Rain = 0
KFAS 200405Z 17006KT M01/M03 A3023 RMK A01 T10121030  RH  088%=      5-min Rain = 0
KFAS 200410Z 17006KT M01/M03 A3024 RMK A01 T10141031  RH  088%=      5-min Rain = 0
KFAS 200415Z 17006KT M01/M03 A3024 RMK A01 T10141031  RH  089%=      5-min Rain = 0
KFAS 200420Z 17007KT M01/M03 A3024 RMK A01 T10131029  RH  089%=      5-min Rain = 0
KFAS 200425Z 17007KT M01/M03 A3024 RMK A01 T10091026  RH  089%=      5-min Rain = 0
KFAS 200430Z 17006KT M01/M03 A3025 RMK A01 T10081027  RH  087%=      5-min Rain = 0
KFAS 200435Z 17007KT M01/M03 A3025 RMK A01 T10081028  RH  087%=      5-min Rain = 0
KFAS 200440Z 16007KT M01/M03 A3024 RMK A01 T10081028  RH  087%=      5-min Rain = 0
KFAS 200445Z 16008KT M01/M03 A3024 RMK A01 T10091027  RH  088%=      5-min Rain = 0
KFAS 200450Z 17008KT M01/M03 A3024 RMK A01 T10071026  RH  088%=      5-min Rain = 0
KFAS 200455Z 17008KT M01/M03 A3024 RMK A01 T10081027  RH  088%=      5-min Rain = 0
KFAS 200500Z 17007KT M01/M03 A3024 RMK A01 T10091028  RH  088%=      5-min Rain = 0
KFAS 200505Z 17007KT M01/M03 A3024 RMK A01 T10101029  RH  088%=      5-min Rain = 0
KFAS 200510Z 17007KT M01/M03 A3024 RMK A01 T10121029  RH  088%=      5-min Rain = 0
KFAS 200515Z 17007KT M01/M03 A3024 RMK A01 T10121030  RH  088%=      5-min Rain = 0
KFAS 200520Z 17008KT M01/M03 A3025 RMK A01 T10121029  RH  089%=      5-min Rain = 0
KFAS 200525Z 17008KT M01/M03 A3025 RMK A01 T10111029  RH  088%=      5-min Rain = 0
KFAS 200530Z 17008KT M01/M03 A3025 RMK A01 T10121031  RH  088%=      5-min Rain = 0
KFAS 200535Z 18009KT M01/M03 A3025 RMK A01 T10141031  RH  088%=      5-min Rain = 0
KFAS 200540Z 18009KT M01/M03 A3025 RMK A01 T10121029  RH  089%=      5-min Rain = 0
KFAS 200545Z 18010KT M01/M03 A3025 RMK A01 T10101028  RH  089%=      5-min Rain = 0
KFAS 200550Z 18009KT M01/M03 A3025 RMK A01 T10091028  RH  087%=      5-min Rain = 0
KFAS 200555Z 18009KT M01/M03 A3025 RMK A01 T10071028  RH  087%=      5-min Rain = 0

Page generated in 0.0095 seconds.